Waterville, ME

12:59 PM EST on December 22, 2014 (GMT -0500)
Knox County Regional | Change Station
CLOSE
Current Station
Airport
Location: Rockland,
Elevation: 56 ft
Nearby Weather Stations

Elev 56 ft 44.06 °N, 69.10 °W | Updated 4 minutes ago

Overcast
Overcast
36 °F
Feels Like 32 °F
N
5
Wind Variable Wind from NNE

Today
High -- | Low -- °F
--% Chance of Precip.
Yesterday
High -- | Low -- °F
Precip. -- in
7:12 AM 4:01 PM
New Moon, 1% visible
Pressure 30.37 in
Visibility 10.0 miles
Clouds Mostly Cloudy 1300 ft
Mostly Cloudy 3100 ft
Overcast 4900 ft
Windchill 32 °F
Dew Point 32 °F
Humidity 87%
Rainfall 0.00 in
Snow Depth Not available.
UV 0 out of 12
Pollen .10 out of 12
Air Quality Not available.
Flu Activity Not available.
METAR KRKD 221755Z AUTO 02004KT 10SM BKN013 BKN031 OVC049 02/00 A3037 RMK AO1 10020 20000 57020

More Conditions Fewer Conditions

Pressure 30.37 in
Visibility 10.0 miles
Clouds Mostly Cloudy 1300 ft
Mostly Cloudy 3100 ft
Overcast 4900 ft
Windchill 32 °F
Dew Point 32 °F
Humidity 87%
Rainfall 0.00 in
Snow Depth Not available.
UV 0 out of 12
Pollen .10 out of 12
Air Quality Not available.
Flu Activity Not available.
METAR KRKD 221755Z AUTO 02004KT 10SM BKN013 BKN031 OVC049 02/00 A3037 RMK AO1 10020 20000 57020

More Conditions Fewer Conditions

10-Day Weather Forecast

Almanac

Astronomy

Dec. 22, 2014 Rise Set
Actual Time
Civil Twilight
Nautical Twilight
Astronomical Twilight
Moon
Length of Visible Light
Length of Day
Tomorrow will be .
, % of the Moon is Illuminated

Today's Extremes

State Highs State Lows

Community

WunderPhotos

Upload Photos

1,779,655 photos uploaded!

WunderBlogs® & News

Nearby

Air Quality

  Air Quality AQ Index Pollutant
Not available.

Snow Depth

Station Depth Elevation

Earthquake Activity

City Distance Mag. Time & Date
Minimum magnitude displayed is 2.5.

Coastal Water Temperatures

Place Temperature

Nearby Weather Stations